createdAt,value
2022-12-28T00:04:48.165Z,0.40
2022-12-28T00:09:50.714Z,0.50
2022-12-28T00:14:53.546Z,1.50
2022-12-28T00:19:56.268Z,0.60
2022-12-28T00:24:58.975Z,0.80
2022-12-28T00:30:01.689Z,0.90
2022-12-28T00:35:04.816Z,0.40
2022-12-28T00:40:10.520Z,1.98
2022-12-28T00:45:13.061Z,0.60
2022-12-28T00:50:17.035Z,0.60
2022-12-28T00:55:19.736Z,0.73
2022-12-28T01:00:22.374Z,0.47
2022-12-28T01:05:25.400Z,0.60
2022-12-28T01:10:28.000Z,0.50
2022-12-28T01:15:32.487Z,0.47
2022-12-28T01:20:35.139Z,0.70
2022-12-28T01:25:37.723Z,0.77
2022-12-28T01:30:41.148Z,0.40
2022-12-28T01:35:43.748Z,0.50
2022-12-28T01:40:46.367Z,0.60
2022-12-28T01:45:52.903Z,0.57
2022-12-28T01:50:55.832Z,0.68
2022-12-28T01:55:58.468Z,0.57
2022-12-28T02:01:01.616Z,0.40
2022-12-28T02:06:09.585Z,1.13
2022-12-28T02:11:18.897Z,0.43
2022-12-28T02:16:21.626Z,0.50
2022-12-28T02:21:35.976Z,1.00
2022-12-28T02:26:55.915Z,0.50
2022-12-28T02:32:22.529Z,0.95
2022-12-28T02:37:49.558Z,0.40
2022-12-28T02:42:55.184Z,0.65
2022-12-28T02:48:16.713Z,0.80
2022-12-28T02:53:35.396Z,1.02
2022-12-28T02:59:16.795Z,1.02
2022-12-28T03:05:08.642Z,0.85
2022-12-28T03:10:20.267Z,0.77
2022-12-28T03:15:31.338Z,0.80
2022-12-28T03:20:54.146Z,1.10
2022-12-28T03:26:20.133Z,0.73
2022-12-28T03:31:28.785Z,0.73
2022-12-28T03:36:55.356Z,0.90
2022-12-28T03:42:49.370Z,4.50
2022-12-28T03:47:57.025Z,14.02
2022-12-28T03:53:00.054Z,4.78
2022-12-28T03:58:07.307Z,11.13
2022-12-28T04:03:10.100Z,6.57
2022-12-28T04:08:13.025Z,5.38
2022-12-28T04:13:15.719Z,3.15
2022-12-28T04:23:36.993Z,1.20
2022-12-28T04:28:55.129Z,1.15
2022-12-28T04:34:23.093Z,1.20
2022-12-28T04:39:55.242Z,1.05
2022-12-28T04:45:00.193Z,1.65
2022-12-28T04:50:03.948Z,0.65
2022-12-28T04:55:08.154Z,0.95
2022-12-28T05:00:32.416Z,0.98
2022-12-28T05:05:37.376Z,1.00
2022-12-28T05:10:39.936Z,0.60
2022-12-28T05:15:42.476Z,1.40
2022-12-28T05:20:45.108Z,1.00
2022-12-28T05:25:54.927Z,1.33
2022-12-28T05:31:08.040Z,1.17
2022-12-28T05:36:21.598Z,2.65
2022-12-28T05:41:28.446Z,1.73
2022-12-28T05:46:35.105Z,1.80
2022-12-28T05:51:40.058Z,1.42
2022-12-28T05:56:42.888Z,0.65
2022-12-28T06:01:46.129Z,1.27
2022-12-28T06:06:49.564Z,1.42
2022-12-28T06:11:52.170Z,1.15
2022-12-28T06:16:56.465Z,1.70
2022-12-28T06:22:00.558Z,2.72
2022-12-28T06:27:04.825Z,2.17
2022-12-28T06:32:08.469Z,2.53
2022-12-28T06:37:11.064Z,1.90
2022-12-28T06:42:13.631Z,2.72
2022-12-28T06:47:16.259Z,3.28
2022-12-28T06:52:19.339Z,2.78
2022-12-28T06:57:23.149Z,2.67
2022-12-28T07:02:27.824Z,2.70
2022-12-28T07:07:32.255Z,3.78
2022-12-28T07:12:35.462Z,3.58
2022-12-28T07:17:38.465Z,3.83
2022-12-28T07:22:41.871Z,3.17
2022-12-28T07:27:45.610Z,2.78
2022-12-28T07:32:49.601Z,2.85
2022-12-28T07:37:54.988Z,1.73
2022-12-28T07:43:00.771Z,1.73
2022-12-28T07:48:04.401Z,2.00
2022-12-28T07:53:08.234Z,2.37
2022-12-28T07:58:10.757Z,2.47
2022-12-28T08:03:13.456Z,2.08
2022-12-28T08:08:16.063Z,2.53
2022-12-28T08:13:19.468Z,2.58
2022-12-28T08:18:21.971Z,3.13
2022-12-28T08:23:24.533Z,3.63
2022-12-28T08:28:27.566Z,2.90
2022-12-28T08:33:31.376Z,2.50
2022-12-28T08:38:35.872Z,2.63
2022-12-28T08:43:38.756Z,2.53
2022-12-28T08:48:42.619Z,3.20
2022-12-28T08:53:45.823Z,5.60
2022-12-28T08:58:49.929Z,4.50
2022-12-28T09:03:57.960Z,3.63
2022-12-28T09:09:06.157Z,2.33
2022-12-28T09:14:20.427Z,2.22
2022-12-28T09:19:26.933Z,2.10
2022-12-28T09:24:31.043Z,2.17
2022-12-28T09:29:34.225Z,2.60
2022-12-28T09:34:38.485Z,2.00
2022-12-28T09:39:41.194Z,2.70
2022-12-28T09:45:08.750Z,1.90
2022-12-28T09:50:17.653Z,2.00
2022-12-28T09:55:22.680Z,2.65
2022-12-28T10:00:58.570Z,2.80
2022-12-28T10:06:03.100Z,2.78
2022-12-28T10:11:06.927Z,5.97
2022-12-28T10:16:21.355Z,21.77
2022-12-28T10:21:32.305Z,3.70
2022-12-28T10:26:36.624Z,3.00
2022-12-28T10:31:40.790Z,2.88
2022-12-28T10:36:43.796Z,3.37
2022-12-28T10:41:47.684Z,4.53
2022-12-28T10:46:58.242Z,3.40
2022-12-28T10:52:01.061Z,3.75
2022-12-28T10:57:04.890Z,4.00
2022-12-28T11:02:25.006Z,3.10
2022-12-28T11:07:33.373Z,4.32
2022-12-28T11:12:45.655Z,8.95
2022-12-28T11:17:56.892Z,9.52
2022-12-28T11:23:00.270Z,5.57
2022-12-28T11:28:16.152Z,5.82
2022-12-28T11:33:42.971Z,4.95
2022-12-28T11:38:49.599Z,4.15
2022-12-28T11:43:57.767Z,2.33
2022-12-28T11:49:34.311Z,2.45
2022-12-28T11:54:50.620Z,3.28
2022-12-28T11:59:54.581Z,2.78
2022-12-28T12:04:58.346Z,3.95
2022-12-28T12:10:34.329Z,2.83
2022-12-28T12:15:44.819Z,4.03
2022-12-28T12:21:00.775Z,4.40
2022-12-28T12:26:32.272Z,4.72
2022-12-28T12:31:45.351Z,6.85
2022-12-28T12:36:57.026Z,7.05
2022-12-28T12:42:10.624Z,5.78
2022-12-28T12:47:59.454Z,5.13
2022-12-28T12:53:18.011Z,12.75
2022-12-28T12:58:35.453Z,16.95
2022-12-28T13:04:02.339Z,4.05
2022-12-28T13:10:39.537Z,3.92
2022-12-28T13:15:44.636Z,4.38
2022-12-28T13:21:21.005Z,4.18
2022-12-28T13:26:42.947Z,4.60
2022-12-28T13:31:49.759Z,5.47
2022-12-28T13:36:59.407Z,5.80
2022-12-28T13:42:15.048Z,5.28
2022-12-28T13:47:41.086Z,6.50
2022-12-28T13:52:46.813Z,6.97
2022-12-28T13:57:59.538Z,6.10
2022-12-28T14:03:05.808Z,6.68
2022-12-28T14:08:08.484Z,10.02
2022-12-28T14:13:11.705Z,10.82
2022-12-28T14:18:18.880Z,9.15
2022-12-28T14:23:28.625Z,7.53
2022-12-28T14:28:53.657Z,10.90
2022-12-28T14:34:12.285Z,9.07
2022-12-28T14:39:44.578Z,6.78
2022-12-28T14:44:54.425Z,5.90
2022-12-28T14:50:03.367Z,7.25
2022-12-28T14:55:31.325Z,7.22
2022-12-28T15:01:06.440Z,7.75
2022-12-28T15:06:09.446Z,4.87
2022-12-28T15:11:13.878Z,5.05
2022-12-28T15:16:19.266Z,5.18
2022-12-28T15:21:25.369Z,6.70
2022-12-28T15:26:28.088Z,5.53
2022-12-28T15:31:31.580Z,6.68
2022-12-28T15:36:34.199Z,7.03
2022-12-28T15:41:46.687Z,8.25
2022-12-28T15:46:50.267Z,9.13
2022-12-28T15:51:52.992Z,10.27
2022-12-28T15:56:56.647Z,9.50
2022-12-28T16:01:59.463Z,10.68
2022-12-28T16:07:02.263Z,9.27
2022-12-28T16:12:05.431Z,9.02
2022-12-28T16:17:08.242Z,9.82
2022-12-28T16:22:11.058Z,9.45
2022-12-28T16:27:13.604Z,6.88
2022-12-28T16:32:16.240Z,7.05
2022-12-28T16:37:18.782Z,8.63
2022-12-28T16:42:21.355Z,9.65
2022-12-28T16:47:23.947Z,12.70
2022-12-28T16:52:26.481Z,16.48
2022-12-28T16:57:29.063Z,20.10
2022-12-28T17:02:31.902Z,20.10
2022-12-28T17:07:34.830Z,13.75
2022-12-28T17:12:37.577Z,10.20
2022-12-28T17:17:40.337Z,8.55
2022-12-28T17:22:43.194Z,8.68
2022-12-28T17:27:45.831Z,9.18
2022-12-28T17:32:49.674Z,6.70
2022-12-28T17:37:52.455Z,6.50
2022-12-28T17:42:55.069Z,4.70
2022-12-28T17:47:57.939Z,6.25
2022-12-28T17:53:00.650Z,5.40
2022-12-28T17:58:03.393Z,7.38
2022-12-28T18:03:05.994Z,7.90
2022-12-28T18:08:08.664Z,9.13
2022-12-28T18:13:12.314Z,7.90
2022-12-28T18:18:17.687Z,7.72
2022-12-28T18:23:20.258Z,6.57
2022-12-28T18:28:23.779Z,7.00
2022-12-28T18:33:26.503Z,8.02
2022-12-28T18:38:29.186Z,9.32
2022-12-28T18:43:34.032Z,7.65
2022-12-28T18:53:41.897Z,9.35
2022-12-28T18:58:45.385Z,8.55
2022-12-28T19:03:48.790Z,9.55
2022-12-28T19:08:51.662Z,8.50
2022-12-28T19:13:54.749Z,8.52
2022-12-28T19:18:57.713Z,8.07
2022-12-28T19:24:15.544Z,7.38
2022-12-28T19:29:18.163Z,5.63
2022-12-28T19:34:20.729Z,5.63
2022-12-28T19:39:23.275Z,8.52
2022-12-28T19:44:25.846Z,7.15
2022-12-28T19:49:28.439Z,7.68
2022-12-28T19:54:31.067Z,6.13
2022-12-28T19:59:33.620Z,6.70
2022-12-28T20:04:36.260Z,8.38
2022-12-28T20:09:39.140Z,7.82
2022-12-28T20:14:41.660Z,11.15
2022-12-28T20:19:44.507Z,9.30
2022-12-28T20:24:47.184Z,7.78
2022-12-28T20:29:49.738Z,7.55
2022-12-28T20:34:52.293Z,8.25
2022-12-28T20:39:54.830Z,10.63
2022-12-28T20:45:01.196Z,13.25
2022-12-28T20:50:04.134Z,9.80
2022-12-28T20:55:08.901Z,8.38
2022-12-28T21:00:14.948Z,8.15
2022-12-28T21:05:17.533Z,8.98
2022-12-28T21:10:20.151Z,6.88
2022-12-28T21:15:22.778Z,5.88
2022-12-28T21:20:26.783Z,6.72
2022-12-28T21:25:32.947Z,6.15
2022-12-28T21:30:35.660Z,7.70
2022-12-28T21:35:38.320Z,5.93
2022-12-28T21:40:40.841Z,7.60
2022-12-28T21:45:43.393Z,5.50
2022-12-28T21:50:45.944Z,5.70
2022-12-28T21:55:49.040Z,5.43
2022-12-28T22:01:15.664Z,4.95
2022-12-28T22:06:18.338Z,4.10
2022-12-28T22:11:40.035Z,3.95
2022-12-28T22:16:42.742Z,3.28
2022-12-28T22:21:45.636Z,3.42
2022-12-28T22:26:48.302Z,3.70
2022-12-28T22:31:51.298Z,3.50
2022-12-28T22:36:53.998Z,3.63
2022-12-28T22:41:57.851Z,3.17
2022-12-28T22:47:02.218Z,2.42
2022-12-28T22:52:06.567Z,2.58
2022-12-28T22:57:09.872Z,3.70
2022-12-28T23:02:13.734Z,3.25
2022-12-28T23:07:17.966Z,3.95
2022-12-28T23:12:21.771Z,2.85
2022-12-28T23:17:27.130Z,3.67
2022-12-28T23:22:53.014Z,2.55
2022-12-28T23:27:59.214Z,2.85
2022-12-28T23:33:03.381Z,2.67
2022-12-28T23:38:07.353Z,2.63
2022-12-28T23:43:10.212Z,2.63
2022-12-28T23:48:12.762Z,3.25
2022-12-28T23:53:15.754Z,2.33
2022-12-28T23:58:18.513Z,2.67
